Red Fish — WDF3926 — position and weather

sailwx.info

Track history (hours):
 
Tides and Currents Weather Stations Pressure Air Temp Water Temp Dewpoint Dewpoint Depression Visibility Wind Speed Wind Dir Waves Ship Positions

Red Fish

Owner: Higman Barge Lines, Inc 1980 Post Oak Blvd., Suite 1101 Houston, Texas 77056, Orange, TX. More information available from US FCC via Universal Licensing System and Coast Guard Vessel Documentation Center.

Last reported at 2015-Jan-28 21:34 UTC. Time now 2015-Jan-28 22:20 UTC.
Position N 29°47' W 095°05'.

Length 26 m; draft 2.9 m.

Type: Towing. MMSI: 367445690.

Date/timePositionNaut miles runAvg speedWind from/ knotsBaromVisibWave heightAir tempDewpointWater temp
2015-Jan-28 21:34N 29°47' W 095°05'0 0.0
2015-Jan-28 20:34N 29°47' W 095°05'0 0.0
2015-Jan-28 19:33N 29°47' W 095°05'0 0.0
2015-Jan-28 18:33N 29°47' W 095°05'0 0.0
2015-Jan-28 17:33N 29°47' W 095°05'0 0.0
2015-Jan-28 16:33N 29°47' W 095°05'2 1.7
2015-Jan-28 15:33N 29°46' W 095°06'0 0.0
2015-Jan-28 14:33N 29°46' W 095°06'2 1.6
2015-Jan-28 13:34N 29°47' W 095°05'0 0.4
2015-Jan-28 12:34N 29°46' W 095°05'4 3.8
2015-Jan-28 11:33N 29°44' W 095°01'3 3.1
2015-Jan-28 10:33N 29°41' W 094°59'4 4.4
2015-Jan-28 09:34N 29°37' W 094°57'5 4.8
2015-Jan-28 08:33N 29°33' W 094°55'12 4.8
2015-Jan-28 06:06N 29°23' W 094°48'1 2.1
2015-Jan-28 05:33N 29°22' W 094°49'5 2.4
2015-Jan-28 03:32N 29°22' W 094°55'0 0.0
2015-Jan-27 14:34N 29°22' W 094°55'0 0.0
2015-Jan-27 06:25N 29°22' W 094°55'0 0.0
2015-Jan-27 05:33N 29°22' W 094°55'10 1.6
2015-Jan-26 23:06N 29°25' W 094°44'0 0.1
2015-Jan-26 22:21N 29°25' W 094°44'0 0.0
2015-Jan-26 21:18N 29°25' W 094°44'0 0.0
2015-Jan-26 20:32N 29°25' W 094°44'0 0.0
2015-Jan-26 19:18N 29°25' W 094°44'0 0.0
2015-Jan-26 18:11N 29°25' W 094°44'0 0.0
2015-Jan-26 17:22N 29°25' W 094°44'0 0.0
2015-Jan-26 15:22N 29°25' W 094°44'0 0.0
2015-Jan-26 14:33N 29°25' W 094°44'0 0.0
2015-Jan-26 13:33N 29°25' W 094°44'0 0.0
2015-Jan-26 01:15N 29°25' W 094°44'0 0.0
2015-Jan-25 15:27N 29°25' W 094°44'0 0.0
2015-Jan-25 14:32N 29°25' W 094°44'0 0.0
2015-Jan-25 13:33N 29°25' W 094°44'0 0.0
2015-Jan-25 12:33N 29°25' W 094°44'0 0.0
2015-Jan-25 11:34N 29°25' W 094°44'0 0.0
2015-Jan-25 10:34N 29°25' W 094°44'0 0.0
2015-Jan-25 09:33N 29°25' W 094°44'0 0.0
2015-Jan-25 08:33N 29°25' W 094°44'0 0.0
2015-Jan-25 07:32N 29°25' W 094°44'0 0.0
2015-Jan-25 06:23N 29°25' W 094°44'0 0.0
2015-Jan-25 05:33N 29°25' W 094°44'0 0.0
2015-Jan-24 18:23N 29°25' W 094°44'0 0.0
2015-Jan-24 17:30N 29°25' W 094°44'0 0.0
2015-Jan-24 15:32N 29°25' W 094°44'0 0.0
2015-Jan-24 14:33N 29°25' W 094°44'0 0.0
2015-Jan-24 13:33N 29°25' W 094°44'5 0.9
2015-Jan-24 07:28N 29°26' W 094°50'7 7.7
2015-Jan-24 06:33N 29°32' W 094°54'7 7.1
2015-Jan-24 05:33N 29°38' W 094°58'7 6.6
2015-Jan-24 04:33N 29°44' W 095°02'5 4.8
2015-Jan-24 03:33N 29°47' W 095°06'0 0.0
2015-Jan-24 02:34N 29°47' W 095°06'0 0.0
2015-Jan-23 23:31N 29°47' W 095°06'0 0.0
2015-Jan-23 22:07N 29°47' W 095°06'1 0.9
2015-Jan-23 21:33N 29°46' W 095°06'2 1.8
2015-Jan-23 20:33N 29°45' W 095°07'0 0.0
2015-Jan-23 19:33N 29°45' W 095°07'0 0.0
2015-Jan-23 18:33N 29°45' W 095°07'0 0.0
2015-Jan-23 17:33N 29°45' W 095°07'0 0.0
2015-Jan-23 16:33N 29°45' W 095°07'0 0.0
2015-Jan-23 15:34N 29°45' W 095°07'0 0.0
2015-Jan-23 14:33N 29°45' W 095°07'0 0.0
2015-Jan-23 13:34N 29°45' W 095°07'0 0.0
2015-Jan-23 12:17N 29°45' W 095°07'0 0.0
2015-Jan-23 11:22N 29°45' W 095°07'0 0.0
2015-Jan-23 10:16N 29°45' W 095°07'0 0.0
2015-Jan-23 09:33N 29°45' W 095°07'0 0.0
2015-Jan-23 08:34N 29°45' W 095°07'0 0.0
2015-Jan-23 07:32N 29°45' W 095°07'0 0.0
2015-Jan-23 06:23N 29°45' W 095°07'0 0.0
2015-Jan-23 05:22N 29°45' W 095°07'0 0.0
2015-Jan-23 04:33N 29°45' W 095°07'0 0.0
2015-Jan-23 03:33N 29°45' W 095°07'0 0.0
2015-Jan-23 02:33N 29°45' W 095°07'0 0.0
2015-Jan-23 01:31N 29°45' W 095°07'0 0.1
2015-Jan-23 00:33N 29°44' W 095°07'1 0.9
2015-Jan-22 23:31N 29°45' W 095°06'2 1.7
2015-Jan-22 22:34N 29°47' W 095°06'0 0.0
2015-Jan-22 21:33N 29°47' W 095°06'0 0.0
2015-Jan-22 20:33N 29°47' W 095°06'0 0.0
2015-Jan-22 19:33N 29°47' W 095°06'0 0.0
2015-Jan-22 18:34N 29°47' W 095°06'0 0.0
2015-Jan-22 17:33N 29°47' W 095°06'0 0.0
2015-Jan-22 16:34N 29°47' W 095°06'3 2.5
2015-Jan-22 15:33N 29°44' W 095°07'5 4.6
2015-Jan-22 14:33N 29°45' W 095°12'0 0.0
2015-Jan-22 13:34N 29°45' W 095°12'0 0.0
2015-Jan-22 12:33N 29°45' W 095°12'0 0.0
2015-Jan-22 11:33N 29°45' W 095°12'0 0.0
2015-Jan-22 10:34N 29°45' W 095°12'0 0.0
2015-Jan-22 09:33N 29°45' W 095°12'0 0.0
2015-Jan-22 08:33N 29°45' W 095°12'0 0.0
2015-Jan-22 07:34N 29°45' W 095°12'0 0.0
2015-Jan-22 06:33N 29°45' W 095°12'0 0.0
2015-Jan-22 05:33N 29°45' W 095°12'0 0.0
2015-Jan-22 04:34N 29°45' W 095°12'0 0.0
2015-Jan-22 03:34N 29°45' W 095°12'0 0.0
2015-Jan-22 02:33N 29°45' W 095°12'0 0.0
2015-Jan-22 01:34N 29°45' W 095°12'0 0.0
2015-Jan-22 00:33N 29°45' W 095°12'0 0.0
2015-Jan-21 23:33N 29°45' W 095°12'0 0.0
2015-Jan-21 22:50N 29°45' W 095°12'0 0.1
2015-Jan-21 22:46N 29°45' W 095°12'0 0.0
2015-Jan-21 22:34N 29°45' W 095°12'0 0.0
2015-Jan-21 21:33N 29°45' W 095°12'0 0.0
2015-Jan-21 20:34N 29°45' W 095°12'0 0.4
2015-Jan-21 19:34N 29°44' W 095°12'2 2.1
2015-Jan-21 18:33N 29°43' W 095°14'1 0.6
2015-Jan-21 17:34N 29°43' W 095°15'0 0.0
2015-Jan-21 16:33N 29°43' W 095°15'0 0.0
2015-Jan-21 15:33N 29°43' W 095°15'0 0.0
2015-Jan-21 14:33N 29°43' W 095°15'0 0.0
2015-Jan-21 13:34N 29°43' W 095°15'0 0.0
2015-Jan-21 12:34N 29°43' W 095°15'0 0.0
2015-Jan-21 11:34N 29°43' W 095°15'0 0.0
2015-Jan-21 10:34N 29°43' W 095°15'0 0.0
2015-Jan-21 09:34N 29°43' W 095°15'0 0.0
2015-Jan-21 08:34N 29°43' W 095°15'0 0.0
2015-Jan-21 07:33N 29°43' W 095°15'0 0.0
2015-Jan-21 06:34N 29°43' W 095°15'0 0.0
2015-Jan-21 05:34N 29°43' W 095°15'0 0.0
2015-Jan-21 04:34N 29°43' W 095°15'0 0.0
2015-Jan-21 03:34N 29°43' W 095°15'0 0.0
2015-Jan-21 02:33N 29°43' W 095°15'0 0.0
2015-Jan-21 01:33N 29°43' W 095°15'0 0.0
2015-Jan-21 00:34N 29°43' W 095°15'0 0.0
2015-Jan-20 23:34N 29°43' W 095°15'0 0.0
2015-Jan-20 22:34N 29°43' W 095°15'0 0.0
2015-Jan-20 21:34N 29°43' W 095°15'0 0.0
2015-Jan-20 20:33N 29°43' W 095°15'0 0.0
2015-Jan-20 19:34N 29°43' W 095°15'0 0.1
2015-Jan-20 18:33N 29°43' W 095°15'1 1.4
2015-Jan-20 17:33N 29°44' W 095°14'6 5.8
2015-Jan-20 16:33N 29°44' W 095°07'3 2.6
2015-Jan-20 15:33N 29°47' W 095°06'0 0.0
2015-Jan-20 14:34N 29°47' W 095°06'0 0.0
2015-Jan-20 13:34N 29°47' W 095°06'0 0.0
2015-Jan-20 12:33N 29°47' W 095°06'0 0.0
2015-Jan-20 11:33N 29°47' W 095°06'0 0.0
2015-Jan-20 10:33N 29°47' W 095°06'0 0.0
2015-Jan-20 09:33N 29°47' W 095°06'0 0.0
2015-Jan-20 08:34N 29°47' W 095°06'0 0.0
2015-Jan-20 07:34N 29°47' W 095°06'0 0.0
2015-Jan-20 06:34N 29°47' W 095°06'0 0.0
2015-Jan-20 05:33N 29°47' W 095°06'0 0.0
2015-Jan-20 04:33N 29°47' W 095°06'0 0.0
2015-Jan-20 03:33N 29°47' W 095°06'0 0.0
2015-Jan-20 02:34N 29°47' W 095°06'0 0.0
2015-Jan-20 01:33N 29°47' W 095°06'0 0.0
2015-Jan-20 00:34N 29°47' W 095°06'0 0.5
2015-Jan-19 23:34N 29°46' W 095°06'1 0.7
2015-Jan-19 22:34N 29°46' W 095°07'0 0.0
2015-Jan-19 21:33N 29°46' W 095°07'0 0.0
2015-Jan-19 20:33N 29°46' W 095°07'0 0.0
2015-Jan-19 19:34N 29°46' W 095°07'0 0.0
2015-Jan-19 18:33N 29°46' W 095°07'0 0.0
2015-Jan-19 17:33N 29°46' W 095°07'0 0.0
2015-Jan-19 16:34N 29°46' W 095°07'0 0.0
2015-Jan-19 15:34N 29°46' W 095°07'0 0.0
2015-Jan-19 14:33N 29°46' W 095°07'0 0.0
2015-Jan-19 13:34N 29°46' W 095°07'0 0.0
2015-Jan-19 12:34N 29°46' W 095°07'0 0.0
2015-Jan-19 11:34N 29°46' W 095°07'0 0.0
2015-Jan-19 10:33N 29°46' W 095°07'0 0.0
2015-Jan-19 09:33N 29°46' W 095°07'0 0.0
2015-Jan-19 08:34N 29°46' W 095°07'0 0.0
2015-Jan-19 07:34N 29°46' W 095°07'0 0.0
2015-Jan-19 06:34N 29°46' W 095°07'0 0.0
2015-Jan-19 05:34N 29°46' W 095°07'0 0.0
2015-Jan-19 04:34N 29°46' W 095°07'0 0.0
2015-Jan-19 03:33N 29°46' W 095°07'0 0.0
2015-Jan-19 02:34N 29°46' W 095°07'0 0.0
2015-Jan-19 01:33N 29°46' W 095°07'0 0.0
2015-Jan-19 00:34N 29°46' W 095°07'0 0.0
2015-Jan-18 23:34N 29°46' W 095°07'0 0.0
2015-Jan-18 22:33N 29°46' W 095°07'  
Track history (hours):
 
Tides and Currents Weather Stations Pressure Air Temp Water Temp Dewpoint Dewpoint Depression Visibility Wind Speed Wind Dir Waves Ship Positions

Red Fish

Owner: Higman Barge Lines, Inc 1980 Post Oak Blvd., Suite 1101 Houston, Texas 77056, Orange, TX. More information available from US FCC via Universal Licensing System and Coast Guard Vessel Documentation Center.

Last reported at 2015-Jan-28 21:34 UTC. Time now 2015-Jan-28 22:20 UTC.
Position N 29°47' W 095°05'.

Length 26 m; draft 2.9 m.

Type: Towing. MMSI: 367445690.

Date/timePositionNaut miles runAvg speedWind from/ knotsBaromVisibWave heightAir tempDewpointWater temp
2015-Jan-28 21:34N 29°47' W 095°05'0 0.0
2015-Jan-28 20:34N 29°47' W 095°05'0 0.0
2015-Jan-28 19:33N 29°47' W 095°05'0 0.0
2015-Jan-28 18:33N 29°47' W 095°05'0 0.0
2015-Jan-28 17:33N 29°47' W 095°05'0 0.0
2015-Jan-28 16:33N 29°47' W 095°05'2 1.7
2015-Jan-28 15:33N 29°46' W 095°06'0 0.0
2015-Jan-28 14:33N 29°46' W 095°06'2 1.6
2015-Jan-28 13:34N 29°47' W 095°05'0 0.4
2015-Jan-28 12:34N 29°46' W 095°05'4 3.8
2015-Jan-28 11:33N 29°44' W 095°01'3 3.1
2015-Jan-28 10:33N 29°41' W 094°59'4 4.4
2015-Jan-28 09:34N 29°37' W 094°57'5 4.8
2015-Jan-28 08:33N 29°33' W 094°55'12 4.8
2015-Jan-28 06:06N 29°23' W 094°48'1 2.1
2015-Jan-28 05:33N 29°22' W 094°49'5 2.4
2015-Jan-28 03:32N 29°22' W 094°55'0 0.0
2015-Jan-27 14:34N 29°22' W 094°55'0 0.0
2015-Jan-27 06:25N 29°22' W 094°55'0 0.0
2015-Jan-27 05:33N 29°22' W 094°55'10 1.6
2015-Jan-26 23:06N 29°25' W 094°44'0 0.1
2015-Jan-26 22:21N 29°25' W 094°44'0 0.0
2015-Jan-26 21:18N 29°25' W 094°44'0 0.0
2015-Jan-26 20:32N 29°25' W 094°44'0 0.0
2015-Jan-26 19:18N 29°25' W 094°44'0 0.0
2015-Jan-26 18:11N 29°25' W 094°44'0 0.0
2015-Jan-26 17:22N 29°25' W 094°44'0 0.0
2015-Jan-26 15:22N 29°25' W 094°44'0 0.0
2015-Jan-26 14:33N 29°25' W 094°44'0 0.0
2015-Jan-26 13:33N 29°25' W 094°44'0 0.0
2015-Jan-26 01:15N 29°25' W 094°44'0 0.0
2015-Jan-25 15:27N 29°25' W 094°44'0 0.0
2015-Jan-25 14:32N 29°25' W 094°44'0 0.0
2015-Jan-25 13:33N 29°25' W 094°44'0 0.0
2015-Jan-25 12:33N 29°25' W 094°44'0 0.0
2015-Jan-25 11:34N 29°25' W 094°44'0 0.0
2015-Jan-25 10:34N 29°25' W 094°44'0 0.0
2015-Jan-25 09:33N 29°25' W 094°44'0 0.0
2015-Jan-25 08:33N 29°25' W 094°44'0 0.0
2015-Jan-25 07:32N 29°25' W 094°44'0 0.0
2015-Jan-25 06:23N 29°25' W 094°44'0 0.0
2015-Jan-25 05:33N 29°25' W 094°44'0 0.0
2015-Jan-24 18:23N 29°25' W 094°44'0 0.0
2015-Jan-24 17:30N 29°25' W 094°44'0 0.0
2015-Jan-24 15:32N 29°25' W 094°44'0 0.0
2015-Jan-24 14:33N 29°25' W 094°44'0 0.0
2015-Jan-24 13:33N 29°25' W 094°44'5 0.9
2015-Jan-24 07:28N 29°26' W 094°50'7 7.7
2015-Jan-24 06:33N 29°32' W 094°54'7 7.1
2015-Jan-24 05:33N 29°38' W 094°58'7 6.6
2015-Jan-24 04:33N 29°44' W 095°02'5 4.8
2015-Jan-24 03:33N 29°47' W 095°06'0 0.0
2015-Jan-24 02:34N 29°47' W 095°06'0 0.0
2015-Jan-23 23:31N 29°47' W 095°06'0 0.0
2015-Jan-23 22:07N 29°47' W 095°06'1 0.9
2015-Jan-23 21:33N 29°46' W 095°06'2 1.8
2015-Jan-23 20:33N 29°45' W 095°07'0 0.0
2015-Jan-23 19:33N 29°45' W 095°07'0 0.0
2015-Jan-23 18:33N 29°45' W 095°07'0 0.0
2015-Jan-23 17:33N 29°45' W 095°07'0 0.0
2015-Jan-23 16:33N 29°45' W 095°07'0 0.0
2015-Jan-23 15:34N 29°45' W 095°07'0 0.0
2015-Jan-23 14:33N 29°45' W 095°07'0 0.0
2015-Jan-23 13:34N 29°45' W 095°07'0 0.0
2015-Jan-23 12:17N 29°45' W 095°07'0 0.0
2015-Jan-23 11:22N 29°45' W 095°07'0 0.0
2015-Jan-23 10:16N 29°45' W 095°07'0 0.0
2015-Jan-23 09:33N 29°45' W 095°07'0 0.0
2015-Jan-23 08:34N 29°45' W 095°07'0 0.0
2015-Jan-23 07:32N 29°45' W 095°07'0 0.0
2015-Jan-23 06:23N 29°45' W 095°07'0 0.0
2015-Jan-23 05:22N 29°45' W 095°07'0 0.0
2015-Jan-23 04:33N 29°45' W 095°07'0 0.0
2015-Jan-23 03:33N 29°45' W 095°07'0 0.0
2015-Jan-23 02:33N 29°45' W 095°07'0 0.0
2015-Jan-23 01:31N 29°45' W 095°07'0 0.1
2015-Jan-23 00:33N 29°44' W 095°07'1 0.9
2015-Jan-22 23:31N 29°45' W 095°06'2 1.7
2015-Jan-22 22:34N 29°47' W 095°06'0 0.0
2015-Jan-22 21:33N 29°47' W 095°06'0 0.0
2015-Jan-22 20:33N 29°47' W 095°06'0 0.0
2015-Jan-22 19:33N 29°47' W 095°06'0 0.0
2015-Jan-22 18:34N 29°47' W 095°06'0 0.0
2015-Jan-22 17:33N 29°47' W 095°06'0 0.0
2015-Jan-22 16:34N 29°47' W 095°06'3 2.5
2015-Jan-22 15:33N 29°44' W 095°07'5 4.6
2015-Jan-22 14:33N 29°45' W 095°12'0 0.0
2015-Jan-22 13:34N 29°45' W 095°12'0 0.0
2015-Jan-22 12:33N 29°45' W 095°12'0 0.0
2015-Jan-22 11:33N 29°45' W 095°12'0 0.0
2015-Jan-22 10:34N 29°45' W 095°12'0 0.0
2015-Jan-22 09:33N 29°45' W 095°12'0 0.0
2015-Jan-22 08:33N 29°45' W 095°12'0 0.0
2015-Jan-22 07:34N 29°45' W 095°12'0 0.0
2015-Jan-22 06:33N 29°45' W 095°12'0 0.0
2015-Jan-22 05:33N 29°45' W 095°12'0 0.0
2015-Jan-22 04:34N 29°45' W 095°12'0 0.0
2015-Jan-22 03:34N 29°45' W 095°12'0 0.0
2015-Jan-22 02:33N 29°45' W 095°12'0 0.0
2015-Jan-22 01:34N 29°45' W 095°12'0 0.0
2015-Jan-22 00:33N 29°45' W 095°12'0 0.0
2015-Jan-21 23:33N 29°45' W 095°12'0 0.0
2015-Jan-21 22:50N 29°45' W 095°12'0 0.1
2015-Jan-21 22:46N 29°45' W 095°12'0 0.0
2015-Jan-21 22:34N 29°45' W 095°12'0 0.0
2015-Jan-21 21:33N 29°45' W 095°12'0 0.0
2015-Jan-21 20:34N 29°45' W 095°12'0 0.4
2015-Jan-21 19:34N 29°44' W 095°12'2 2.1
2015-Jan-21 18:33N 29°43' W 095°14'1 0.6
2015-Jan-21 17:34N 29°43' W 095°15'0 0.0
2015-Jan-21 16:33N 29°43' W 095°15'0 0.0
2015-Jan-21 15:33N 29°43' W 095°15'0 0.0
2015-Jan-21 14:33N 29°43' W 095°15'0 0.0
2015-Jan-21 13:34N 29°43' W 095°15'0 0.0
2015-Jan-21 12:34N 29°43' W 095°15'0 0.0
2015-Jan-21 11:34N 29°43' W 095°15'0 0.0
2015-Jan-21 10:34N 29°43' W 095°15'0 0.0
2015-Jan-21 09:34N 29°43' W 095°15'0 0.0
2015-Jan-21 08:34N 29°43' W 095°15'0 0.0
2015-Jan-21 07:33N 29°43' W 095°15'0 0.0
2015-Jan-21 06:34N 29°43' W 095°15'0 0.0
2015-Jan-21 05:34N 29°43' W 095°15'0 0.0
2015-Jan-21 04:34N 29°43' W 095°15'0 0.0
2015-Jan-21 03:34N 29°43' W 095°15'0 0.0
2015-Jan-21 02:33N 29°43' W 095°15'0 0.0
2015-Jan-21 01:33N 29°43' W 095°15'0 0.0
2015-Jan-21 00:34N 29°43' W 095°15'0 0.0
2015-Jan-20 23:34N 29°43' W 095°15'0 0.0
2015-Jan-20 22:34N 29°43' W 095°15'0 0.0
2015-Jan-20 21:34N 29°43' W 095°15'0 0.0
2015-Jan-20 20:33N 29°43' W 095°15'0 0.0
2015-Jan-20 19:34N 29°43' W 095°15'0 0.1
2015-Jan-20 18:33N 29°43' W 095°15'1 1.4
2015-Jan-20 17:33N 29°44' W 095°14'6 5.8
2015-Jan-20 16:33N 29°44' W 095°07'3 2.6
2015-Jan-20 15:33N 29°47' W 095°06'0 0.0
2015-Jan-20 14:34N 29°47' W 095°06'0 0.0
2015-Jan-20 13:34N 29°47' W 095°06'0 0.0
2015-Jan-20 12:33N 29°47' W 095°06'0 0.0
2015-Jan-20 11:33N 29°47' W 095°06'0 0.0
2015-Jan-20 10:33N 29°47' W 095°06'0 0.0
2015-Jan-20 09:33N 29°47' W 095°06'0 0.0
2015-Jan-20 08:34N 29°47' W 095°06'0 0.0
2015-Jan-20 07:34N 29°47' W 095°06'0 0.0
2015-Jan-20 06:34N 29°47' W 095°06'0 0.0
2015-Jan-20 05:33N 29°47' W 095°06'0 0.0
2015-Jan-20 04:33N 29°47' W 095°06'0 0.0
2015-Jan-20 03:33N 29°47' W 095°06'0 0.0
2015-Jan-20 02:34N 29°47' W 095°06'0 0.0
2015-Jan-20 01:33N 29°47' W 095°06'0 0.0
2015-Jan-20 00:34N 29°47' W 095°06'0 0.5
2015-Jan-19 23:34N 29°46' W 095°06'1 0.7
2015-Jan-19 22:34N 29°46' W 095°07'0 0.0
2015-Jan-19 21:33N 29°46' W 095°07'0 0.0
2015-Jan-19 20:33N 29°46' W 095°07'0 0.0
2015-Jan-19 19:34N 29°46' W 095°07'0 0.0
2015-Jan-19 18:33N 29°46' W 095°07'0 0.0
2015-Jan-19 17:33N 29°46' W 095°07'0 0.0
2015-Jan-19 16:34N 29°46' W 095°07'0 0.0
2015-Jan-19 15:34N 29°46' W 095°07'0 0.0
2015-Jan-19 14:33N 29°46' W 095°07'0 0.0
2015-Jan-19 13:34N 29°46' W 095°07'0 0.0
2015-Jan-19 12:34N 29°46' W 095°07'0 0.0
2015-Jan-19 11:34N 29°46' W 095°07'0 0.0
2015-Jan-19 10:33N 29°46' W 095°07'0 0.0
2015-Jan-19 09:33N 29°46' W 095°07'0 0.0
2015-Jan-19 08:34N 29°46' W 095°07'0 0.0
2015-Jan-19 07:34N 29°46' W 095°07'0 0.0
2015-Jan-19 06:34N 29°46' W 095°07'0 0.0
2015-Jan-19 05:34N 29°46' W 095°07'0 0.0
2015-Jan-19 04:34N 29°46' W 095°07'0 0.0
2015-Jan-19 03:33N 29°46' W 095°07'0 0.0
2015-Jan-19 02:34N 29°46' W 095°07'0 0.0
2015-Jan-19 01:33N 29°46' W 095°07'0 0.0
2015-Jan-19 00:34N 29°46' W 095°07'0 0.0
2015-Jan-18 23:34N 29°46' W 095°07'0 0.0
2015-Jan-18 22:33N 29°46' W 095°07'  

Dump ship's entire track history